Latest Weather Observations for Low Isles

IDQ60801

Issued at 7:05 pm EST Sunday 26 October 2014 (issued every 30 minutes, with the page automatically refreshed every 10 minutes)

About weather observations | Map of weather stations | Latest weather observations for QLD | Other Formats
Station Details ID: 031037 Name: LOW ISLES LIGHTHOUSE Lat: -16.38 Lon: 145.56 Height: 2.9 m
Data from the previous 72 hours. | See also: Recent months at Low Isles
Date/Time
EST
Temp
°C
App
Temp
°C
Dew
Point
Rel
Hum
%
Delta-T
°C
Wind Press
QNH
hPa
Press
MSL
hPa
Rain
since 9 am
mm
Dir
 
Spd
km/h
Gust
km/h
Spd
kts
Gust
kts
26/07:00pm 24.4 23.9 19.0 72 3.4 ESE 20 26 11 14 1014.7 - 0.0
26/06:30pm 24.7 24.1 18.9 70 3.7 SE 20 24 11 13 1014.6 - 0.0
26/06:00pm 25.1 24.2 18.3 66 4.3 ESE 20 24 11 13 1014.2 1014.1 0.0
26/05:30pm 25.7 24.9 18.4 64 4.6 ESE 20 28 11 15 1014.1 - 0.0
26/05:00pm 26.3 24.7 18.4 61 5.0 ESE 24 28 13 15 1014.0 - 0.0
26/04:30pm 26.6 24.9 18.2 60 5.3 ESE 24 28 13 15 1013.8 - 0.0
26/04:00pm 27.5 27.1 19.3 61 5.3 SE 20 26 11 14 1013.8 - 0.0
26/03:30pm 27.4 26.6 18.4 58 5.7 ESE 20 26 11 14 1013.8 - 0.0
26/03:00pm 27.6 26.4 18.3 57 5.9 SE 22 28 12 15 1014.1 1014.0 0.0
26/02:30pm 28.2 26.8 18.0 54 6.5 SE 22 28 12 15 1014.5 - 0.0
26/02:00pm 27.9 26.8 17.7 53 6.4 SE 20 26 11 14 1014.9 - 0.0
26/01:30pm 28.4 27.6 17.9 53 6.7 SE 19 22 10 12 1015.2 - 0.0
26/01:00pm 28.2 27.1 17.4 52 6.8 SE 19 24 10 13 1015.6 - 0.0
26/12:30pm 28.4 27.7 17.3 51 7.0 SE 17 20 9 11 1016.0 - 0.0
26/12:00pm 28.0 26.6 16.6 50 7.1 SE 19 22 10 12 1016.5 1016.4 0.0
26/11:30am 28.3 27.2 17.2 51 7.0 SE 19 24 10 13 1016.8 - 0.0
26/11:00am 28.4 26.0 16.3 47 7.5 SE 24 30 13 16 1017.0 - 0.0
26/10:30am 28.1 25.8 16.7 50 7.1 SE 24 30 13 16 1017.3 - 0.0
26/10:00am 28.1 26.2 17.6 53 6.6 ESE 24 28 13 15 1017.5 - 0.0
26/09:30am 27.3 25.5 16.9 53 6.5 ESE 22 30 12 16 1017.5 - 0.0
26/09:00am 27.7 24.9 17.2 52 6.6 ESE 28 33 15 18 1017.4 1017.3 0.0
26/08:30am 27.3 24.8 17.2 54 6.3 ESE 26 32 14 17 1017.2 - 0.0
26/08:00am 26.8 25.0 17.0 55 6.1 ESE 22 30 12 16 1017.0 - 0.0
26/07:30am 25.6 24.0 17.5 61 5.1 ESE 22 28 12 15 1016.8 - 0.0
26/07:00am 24.8 22.1 17.5 64 4.6 ESE 28 35 15 19 1016.5 - 0.0
26/06:30am 24.0 22.0 17.5 67 4.0 SE 24 32 13 17 1016.2 - 0.0
26/06:00am 23.6 21.0 16.9 66 4.1 SE 26 30 14 16 1015.8 1015.7 0.0
26/05:30am 23.2 21.1 16.3 65 4.2 ESE 22 28 12 15 1015.6 - 0.0
26/05:00am 23.3 21.2 17.1 68 3.8 SE 24 28 13 15 1015.4 - 0.0
26/04:30am 23.4 20.6 16.4 64 4.3 ESE 26 32 14 17 1015.2 - 0.0
26/04:00am 23.3 20.4 17.1 68 3.8 SE 28 32 15 17 1015.2 - 0.0
26/03:30am 23.5 21.2 17.5 69 3.7 ESE 26 35 14 19 1015.1 - 0.0
26/03:00am 23.1 21.3 18.8 77 2.7 SSE 26 32 14 17 1015.2 1015.1 0.0
26/02:30am 23.2 21.4 18.7 76 2.8 SSE 26 32 14 17 1015.3 - 0.0
26/02:00am 23.4 21.4 19.1 77 2.7 SSE 28 33 15 18 1015.5 - 0.0
26/01:30am 23.5 21.3 18.8 75 3.0 SSE 28 32 15 17 1015.8 - 0.0
26/01:00am 23.7 21.6 19.0 75 3.0 S 28 32 15 17 1016.0 - 0.0
26/12:30am 23.8 21.9 19.3 76 2.9 S 28 32 15 17 1016.4 - 0.0
26/12:00am 23.9 22.2 19.0 74 3.1 SSE 26 30 14 16 1016.8 1016.7 0.0
 
Date/Time
EST
Temp
°C
App
Temp
°C
Dew
Point
Rel
Hum
%
Delta-T
°C
Wind Press
QNH
hPa
Press
MSL
hPa
Rain
since 9 am
mm
Dir
 
Spd
km/h
Gust
km/h
Spd
kts
Gust
kts
25/11:30pm 24.0 22.4 19.1 74 3.1 SSE 26 35 14 19 1017.2 - 0.0
25/11:00pm 24.2 21.5 19.3 74 3.1 SE 32 37 17 20 1017.6 - 0.0
25/10:30pm 24.4 22.4 19.9 76 2.9 SE 30 37 16 20 1017.8 - 0.0
25/10:00pm 24.4 21.7 19.2 73 3.3 SE 32 37 17 20 1017.9 - 0.0
25/09:30pm 24.3 21.4 18.9 72 3.4 SE 32 35 17 19 1017.7 - 0.0
25/09:00pm 24.5 22.6 19.3 73 3.3 SE 28 35 15 19 1017.5 1017.4 0.0
25/08:30pm 24.5 22.4 18.9 71 3.6 SE 28 35 15 19 1017.4 - 0.0
25/08:00pm 24.7 22.8 19.3 72 3.5 SE 28 35 15 19 1017.2 - 0.0
25/07:30pm 24.6 22.5 18.1 67 4.1 SE 26 32 14 17 1016.9 - 0.0
25/07:00pm 24.8 22.5 18.5 68 4.0 SE 28 32 15 17 1016.8 - 0.0
25/06:30pm 24.8 22.4 18.3 67 4.1 SE 28 33 15 18 1016.5 - 0.0
25/06:00pm 25.2 22.4 18.2 65 4.4 SE 30 35 16 19 1016.4 1016.3 0.0
25/05:30pm 25.6 23.1 18.0 63 4.8 SE 28 35 15 19 1016.1 - 0.0
25/05:00pm 26.1 23.6 18.0 61 5.1 SE 28 32 15 17 1015.9 - 0.0
25/04:30pm 26.4 23.7 17.5 58 5.6 SE 28 37 15 20 1015.5 - 0.0
25/04:00pm 27.1 24.4 17.6 56 6.0 SE 28 35 15 19 1015.4 - 0.0
25/03:00pm 27.9 25.3 16.8 50 6.9 SE 26 - 14 - - 1015.6 0.0
25/02:30pm 28.0 25.4 16.9 51 6.9 SE 26 32 14 17 1015.9 - 0.0
25/02:00pm 28.0 25.3 16.6 50 7.1 SE 26 30 14 16 1016.1 - 0.0
25/01:30pm 28.5 26.4 17.1 50 7.2 SE 24 30 13 16 1016.4 - 0.0
25/01:00pm 28.8 26.1 16.7 48 7.6 SE 26 32 14 17 1016.7 - 0.0
25/12:30pm 28.9 26.0 16.1 46 7.9 SE 26 33 14 18 1017.2 - 0.0
25/12:00pm 28.1 24.4 16.1 48 7.4 SE 30 35 16 19 1017.5 1017.4 0.0
25/11:30am 27.5 23.6 16.5 51 6.8 SE 32 37 17 20 1017.9 - 0.0
25/11:00am 27.8 24.1 17.0 51 6.8 SE 32 39 17 21 1018.4 - 0.0
25/10:30am 27.8 24.0 17.3 52 6.6 ESE 33 41 18 22 1018.6 - 0.0
25/10:00am 27.3 23.8 17.8 56 6.0 ESE 33 41 18 22 1018.8 - 0.0
25/09:30am 25.7 21.9 17.1 59 5.3 ESE 33 41 18 22 1019.0 - 0.0
25/09:00am 25.7 21.5 17.1 59 5.3 ESE 35 43 19 23 1019.0 1018.9 0.0
25/08:30am 25.7 22.2 17.9 62 4.9 ESE 33 41 18 22 1018.9 - 0.0
25/08:00am 25.4 21.8 17.6 62 4.9 ESE 33 39 18 21 1018.6 - 0.0
25/07:30am 25.5 21.2 17.7 62 4.9 ESE 37 46 20 25 1018.2 - 0.0
25/07:00am 24.4 20.1 17.9 67 4.1 SE 37 44 20 24 1017.6 - 0.0
25/06:30am 24.0 21.2 19.1 74 3.1 SSE 32 37 17 20 1017.2 - 0.0
25/06:00am 23.8 21.3 18.9 74 3.1 SSE 30 33 16 18 1016.9 1016.8 0.0
25/05:30am 23.8 21.2 18.7 73 3.2 SSE 30 33 16 18 1016.6 - 0.0
25/05:00am 23.8 19.2 16.1 62 4.7 SE 35 43 19 23 1016.3 - 0.0
25/04:30am 23.3 19.5 16.8 67 4.0 SE 32 35 17 19 1016.2 - 0.0
25/04:00am 23.5 19.6 17.0 67 4.0 SE 33 39 18 21 1016.2 - 0.0
25/03:30am 23.4 19.8 17.2 68 3.8 SE 32 39 17 21 1016.2 - 0.0
25/03:00am 23.4 20.0 16.7 66 4.1 SE 30 37 16 20 1016.3 1016.2 0.0
25/02:30am 23.5 20.4 17.5 69 3.7 ESE 30 35 16 19 1016.4 - 0.0
25/02:00am 23.6 20.6 16.9 66 4.1 SE 28 35 15 19 1016.5 - 0.0
25/01:30am 23.8 20.8 16.8 65 4.3 ESE 28 35 15 19 1017.0 - 0.0
25/01:00am 23.8 20.2 17.1 66 4.1 ESE 32 39 17 21 1017.2 - 0.0
25/12:30am 24.0 20.1 17.0 65 4.3 ESE 33 39 18 21 1017.5 - 0.0
25/12:00am 24.1 20.1 16.1 61 4.9 ESE 32 41 17 22 1017.9 1017.8 0.0
 
Date/Time
EST
Temp
°C
App
Temp
°C
Dew
Point
Rel
Hum
%
Delta-T
°C
Wind Press
QNH
hPa
Press
MSL
hPa
Rain
since 9 am
mm
Dir
 
Spd
km/h
Gust
km/h
Spd
kts
Gust
kts
24/11:30pm 24.2 20.4 17.2 65 4.3 ESE 33 43 18 23 1018.2 - 0.0
24/11:00pm 24.4 20.6 18.1 68 4.0 ESE 35 43 19 23 1018.3 - 0.0
24/10:30pm 24.3 21.2 18.5 70 3.7 ESE 32 41 17 22 1018.5 - 0.0
24/10:00pm 23.8 20.9 20.1 80 2.4 SE 35 44 19 24 1018.5 - 0.0
24/09:30pm 24.6 21.8 19.4 73 3.3 ESE 33 39 18 21 1018.3 - 0.0
24/09:00pm 24.5 21.2 19.3 73 3.3 SE 35 41 19 22 1017.9 1017.8 0.0
24/08:30pm 24.7 22.0 19.3 72 3.5 SE 32 39 17 21 1017.7 - 0.0
24/08:00pm 24.5 21.2 18.4 69 3.9 SE 33 39 18 21 1017.4 - 0.0
24/07:30pm 24.6 21.8 19.0 71 3.6 ESE 32 43 17 23 1017.1 - 0.0
24/07:00pm 24.6 20.6 16.8 62 4.8 ESE 33 43 18 23 1017.0 - 0.0
24/06:30pm 24.8 20.0 16.5 60 5.1 SE 37 46 20 25 1016.7 - 0.0
24/06:00pm 25.1 20.2 16.3 58 5.4 ESE 37 46 20 25 1016.4 1016.3 0.0
24/05:30pm 25.5 21.2 16.9 59 5.3 SE 35 44 19 24 1016.2 - 0.0
24/05:00pm 25.8 21.4 16.6 56 5.7 ESE 35 44 19 24 1015.8 - 0.0
24/04:30pm 26.7 22.8 16.9 55 6.1 SE 33 41 18 22 1015.7 - 0.0
24/04:00pm 27.2 22.9 15.9 50 6.9 ESE 33 43 18 23 1015.6 - 0.0
24/03:30pm 27.1 22.3 16.7 53 6.5 SE 37 46 20 25 1015.7 - 0.0
24/03:00pm 27.8 24.2 17.3 52 6.6 ESE 32 39 17 21 1015.9 1015.8 0.0
24/02:30pm 28.2 25.1 17.4 52 6.8 SE 30 39 16 21 1016.1 - 0.0
24/02:00pm 28.0 25.0 16.9 51 6.9 SE 28 35 15 19 1016.3 - 0.0
24/01:30pm 28.0 24.0 16.3 49 7.2 SE 32 41 17 22 1016.6 - 0.0
24/01:00pm 28.7 23.9 15.6 45 8.0 SE 35 43 19 23 1017.0 - 0.0
24/12:30pm 28.6 24.8 16.8 48 7.4 SE 32 41 17 22 1017.4 - 0.0
24/12:00pm 28.6 25.4 18.1 53 6.7 ESE 32 39 17 21 1017.7 1017.6 0.0
24/11:30am 28.2 27.2 18.9 57 6.0 SE 22 33 12 18 1018.1 - 0.0
24/11:00am 27.4 23.7 18.4 58 5.7 ESE 35 44 19 24 1018.5 - 0.0
24/10:30am 27.0 24.4 18.6 60 5.4 SE 30 35 16 19 1018.6 - 0.0
24/10:00am 27.9 26.0 18.6 57 6.0 ESE 26 35 14 19 1018.8 - 0.0
24/09:30am 27.6 25.6 19.1 59 5.5 ESE 28 33 15 18 1018.8 - 0.0
24/09:00am 27.4 25.7 18.9 59 5.4 ESE 26 33 14 18 1018.8 1018.7 1.0
24/08:30am 26.3 23.4 17.9 60 5.3 ESE 30 37 16 20 1018.7 - 1.0
24/08:00am 25.9 23.5 19.1 66 4.4 ESE 30 35 16 19 1018.5 - 1.0
24/07:30am 25.0 22.6 19.1 70 3.8 ESE 30 39 16 21 1018.1 - 1.0
24/07:00am 24.5 21.6 18.9 71 3.6 ESE 32 37 17 20 1017.8 - 1.0
24/06:30am 24.2 21.9 19.3 74 3.1 ESE 30 35 16 19 1017.4 - 1.0
24/06:00am 23.9 21.6 19.4 76 2.9 ESE 30 35 16 19 1017.1 1017.0 1.0
24/05:30am 23.7 21.4 19.4 77 2.7 ESE 30 39 16 21 1016.7 - 1.0
24/05:00am 23.7 20.9 19.0 75 3.0 ESE 32 41 17 22 1016.5 - 1.0
24/04:30am 23.6 20.8 19.1 76 2.9 ESE 32 39 17 21 1016.2 - 1.0
24/04:00am 23.5 20.8 19.2 77 2.7 ESE 32 39 17 21 1016.0 - 1.0
24/03:30am 23.0 19.9 18.5 76 2.8 ESE 32 39 17 21 1015.9 - 1.0
24/03:00am 23.0 21.3 19.8 82 2.1 ESE 28 33 15 18 1015.8 1015.7 1.0
24/02:30am 22.4 20.1 20.1 87 1.5 ESE 32 39 17 21 1016.1 - 1.0
24/02:10am 23.1 17.7 19.1 78 2.5 E 46 52 25 28 1016.4 - 0.2
24/02:08am 23.8 21.6 19.5 77 2.8 ESE 30 48 16 26 1016.4 - 0.2
24/02:00am 23.9 21.7 19.6 77 2.8 ESE 30 37 16 20 1016.3 - 0.2
24/01:30am 24.0 21.3 19.3 75 3.0 ESE 32 41 17 22 1016.7 - 0.2
24/01:00am 24.0 21.3 19.7 77 2.8 ESE 33 41 18 22 1017.0 - 0.2
24/12:30am 24.0 20.7 19.3 75 3.0 SE 35 41 19 22 1017.4 - 0.2
24/12:00am 24.2 21.5 19.7 76 2.9 SE 33 41 18 22 1017.7 1017.6 0.2
 
Date/Time
EST
Temp
°C
App
Temp
°C
Dew
Point
Rel
Hum
%
Delta-T
°C
Wind Press
QNH
hPa
Press
MSL
hPa
Rain
since 9 am
mm
Dir
 
Spd
km/h
Gust
km/h
Spd
kts
Gust
kts
23/11:30pm 24.3 22.0 20.2 78 2.7 SE 32 37 17 20 1018.1 - 0.2
23/11:00pm 24.2 21.1 19.7 76 2.9 SE 35 43 19 23 1018.2 - 0.2
23/10:30pm 24.2 21.7 19.7 76 2.9 ESE 32 41 17 22 1018.3 - 0.2
23/10:00pm 24.3 21.9 20.0 77 2.8 SE 32 41 17 22 1018.4 - 0.2
23/09:30pm 24.3 22.0 20.2 78 2.7 ESE 32 43 17 23 1018.2 - 0.2
23/09:00pm 24.0 21.9 19.7 77 2.8 ESE 30 39 16 21 1018.0 1017.9 0.2
23/08:30pm 24.1 20.9 19.4 75 3.0 ESE 35 43 19 23 1017.7 - 0.2
23/08:00pm 23.8 21.2 19.9 79 2.5 ESE 33 43 18 23 1017.4 - 0.2
23/07:30pm 24.4 22.1 20.1 77 2.8 SE 32 37 17 20 1017.2 - 0.2

Other Formats:

Comma delimited format used in spreadsheet applications
http://www.bom.gov.au/fwo/IDQ60801/IDQ60801.94285.axf

JavaScript Object Notation format (JSON) in row-major order
http://www.bom.gov.au/fwo/IDQ60801/IDQ60801.94285.json